Time;durP1;ratioP1;P1;durP2;ratioP2;P2;SDS_P1;SDS_P2;PMS_P1;PMS_P2;Temp;Humidity;BMP_temperature;BMP_pressure;BME280_temperature;BME280_humidity;BME280_pressure;Samples;Min_cycle;Max_cycle;Signal;HPM_P1;HPM_P2
2023/08/09 00:02:23;;;;;;;;;;;16.30;99.90;;;;;;5070124;28;19966;-69
2023/08/09 00:04:49;;;;;;;;;;;16.30;99.90;;;;;;5069794;28;19912;-68
2023/08/09 00:07:14;;;;;;;;;;;16.30;99.90;;;;;;5069795;28;19908;-69
2023/08/09 00:09:40;;;;;;;;;;;16.30;99.90;;;;;;5070963;28;20011;-68
2023/08/09 00:12:06;;;;;;;;;;;16.30;99.90;;;;;;5071433;28;19904;-70
2023/08/09 00:14:31;;;;;;;;;;;16.30;99.90;;;;;;5069802;28;19908;-70
2023/08/09 00:16:57;;;;;;;;;;;16.30;99.90;;;;;;5069554;28;19912;-70
2023/08/09 00:19:24;;;;;;;;;;;16.30;99.90;;;;;;5070899;28;20250;-69
2023/08/09 00:21:50;;;;;;;;;;;16.30;99.90;;;;;;5069563;28;19979;-70
2023/08/09 00:24:16;;;;;;;;;;;16.20;99.90;;;;;;5070264;28;19909;-70
2023/08/09 00:26:41;;;;;;;;;;;16.20;99.90;;;;;;5069542;28;19912;-69
2023/08/09 00:29:07;;;;;;;;;;;16.30;99.90;;;;;;5071669;28;19914;-70
2023/08/09 00:31:33;;;;;;;;;;;16.30;99.90;;;;;;5074570;28;19920;-70
2023/08/09 00:33:59;;;;;;;;;;;16.30;99.90;;;;;;5074657;28;19924;-71
2023/08/09 00:36:25;;;;;;;;;;;16.30;99.90;;;;;;5074067;28;19908;-69
2023/08/09 00:38:50;;;;;;;;;;;16.30;99.90;;;;;;5074633;28;20222;-71
2023/08/09 00:41:16;;;;;;;;;;;16.30;99.90;;;;;;5074509;28;19908;-69
2023/08/09 00:43:42;;;;;;;;;;;16.20;99.90;;;;;;5074477;28;19908;-69
2023/08/09 00:46:07;;;;;;;;;;;16.00;99.90;;;;;;5073107;28;19908;-69
2023/08/09 00:48:33;;;;;;;;;;;16.10;99.90;;;;;;5074433;28;19962;-70
2023/08/09 00:50:59;;;;;;;;;;;16.10;99.90;;;;;;5074108;28;19927;-70
2023/08/09 00:53:24;;;;;;;;;;;16.10;99.90;;;;;;5073954;28;19909;-70
2023/08/09 00:55:50;;;;;;;;;;;16.10;99.90;;;;;;5074128;28;20278;-69
2023/08/09 00:58:15;;;;;;;;;;;16.00;99.90;;;;;;5073974;28;19919;-69
2023/08/09 01:00:41;;;;;;;;;;;16.00;99.90;;;;;;5073799;28;19912;-69
2023/08/09 01:03:07;;;;;;;;;;;16.10;99.90;;;;;;5074502;28;20225;-69
2023/08/09 01:05:36;;;;;;;;;;;16.10;99.90;;;;;;5073969;28;19912;-70
2023/08/09 01:08:12;;;;;;;;;;;16.10;99.90;;;;;;5073869;28;19970;-69
2023/08/09 01:10:49;;;;;;;;;;;16.00;99.90;;;;;;5073581;28;20350;-68
2023/08/09 01:13:14;;;;;;;;;;;15.90;99.90;;;;;;5073455;28;19912;-68
2023/08/09 01:15:41;;;;;;;;;;;16.00;99.90;;;;;;5073466;28;19912;-68
2023/08/09 01:18:08;;;;;;;;;;;16.10;99.90;;;;;;5073980;28;19969;-70
2023/08/09 01:20:34;;;;;;;;;;;16.00;99.90;;;;;;5072255;28;19920;-70
2023/08/09 01:23:02;;;;;;;;;;;16.00;99.90;;;;;;5072281;28;19915;-69
2023/08/09 01:25:28;;;;;;;;;;;15.80;99.90;;;;;;5073334;28;20310;-69
2023/08/09 01:27:53;;;;;;;;;;;15.90;99.90;;;;;;5073232;28;19939;-69
2023/08/09 01:30:19;;;;;;;;;;;15.90;99.90;;;;;;5074083;28;19905;-70
2023/08/09 01:32:44;;;;;;;;;;;15.80;99.90;;;;;;5073439;28;19908;-70
2023/08/09 01:35:11;;;;;;;;;;;15.90;99.90;;;;;;5075386;28;20326;-70
2023/08/09 01:37:45;;;;;;;;;;;15.90;99.90;;;;;;5093505;28;20357;-70
2023/08/09 01:40:11;;;;;;;;;;;15.90;99.90;;;;;;5092360;28;19912;-69
2023/08/09 01:42:39;;;;;;;;;;;15.90;99.90;;;;;;5092861;28;19904;-69
2023/08/09 01:45:06;;;;;;;;;;;15.90;99.90;;;;;;5093347;28;19934;-69
2023/08/09 01:47:32;;;;;;;;;;;15.90;99.90;;;;;;5092026;28;19908;-69
2023/08/09 01:49:58;;;;;;;;;;;15.90;99.90;;;;;;5093313;28;19915;-71
2023/08/09 01:52:24;;;;;;;;;;;15.90;99.90;;;;;;5093024;28;19915;-70
2023/08/09 01:54:49;;;;;;;;;;;15.80;99.90;;;;;;5093149;28;19911;-70
2023/08/09 01:57:15;;;;;;;;;;;15.80;99.90;;;;;;5093718;28;20241;-69
2023/08/09 01:59:41;;;;;;;;;;;15.80;99.90;;;;;;5093056;28;19912;-69
2023/08/09 02:02:07;;;;;;;;;;;15.80;99.90;;;;;;5093084;28;19968;-69
2023/08/09 02:04:33;;;;;;;;;;;15.70;99.90;;;;;;5093042;28;20352;-70
2023/08/09 02:06:58;;;;;;;;;;;15.70;99.90;;;;;;5093201;28;19919;-68
2023/08/09 02:09:26;;;;;;;;;;;15.70;99.90;;;;;;5093291;28;19904;-70
2023/08/09 02:11:53;;;;;;;;;;;15.60;99.90;;;;;;5092784;28;19920;-69
2023/08/09 02:14:18;;;;;;;;;;;15.50;99.90;;;;;;5091840;28;20007;-69
2023/08/09 02:16:44;;;;;;;;;;;15.60;99.90;;;;;;5092784;28;20002;-69
2023/08/09 02:19:09;;;;;;;;;;;15.60;99.90;;;;;;5092929;28;19918;-69
2023/08/09 02:21:37;;;;;;;;;;;15.40;99.90;;;;;;5093125;28;20243;-69
2023/08/09 02:24:03;;;;;;;;;;;15.40;99.90;;;;;;5091867;28;20269;-69
2023/08/09 02:26:28;;;;;;;;;;;15.30;99.90;;;;;;5091442;28;20003;-70
2023/08/09 02:28:54;;;;;;;;;;;15.40;99.90;;;;;;5091366;28;19908;-69
2023/08/09 02:31:20;;;;;;;;;;;15.30;99.90;;;;;;5091298;28;19912;-69
2023/08/09 02:33:45;;;;;;;;;;;15.40;99.90;;;;;;5092413;28;20342;-70
2023/08/09 02:36:11;;;;;;;;;;;15.40;99.90;;;;;;5092975;28;20334;-70
2023/08/09 02:38:37;;;;;;;;;;;15.30;99.90;;;;;;5092612;28;20213;-70
2023/08/09 02:41:04;;;;;;;;;;;15.30;99.90;;;;;;5092443;28;20011;-70
2023/08/09 02:43:29;;;;;;;;;;;15.30;99.90;;;;;;5092203;28;20260;-70
2023/08/09 02:45:56;;;;;;;;;;;15.20;99.90;;;;;;5092212;28;19918;-70
2023/08/09 02:48:22;;;;;;;;;;;15.20;99.90;;;;;;5092677;28;20284;-71
2023/08/09 02:50:48;;;;;;;;;;;15.10;99.90;;;;;;5092177;28;19980;-70
2023/08/09 02:53:14;;;;;;;;;;;15.20;99.90;;;;;;5091776;28;20311;-70
2023/08/09 02:55:40;;;;;;;;;;;15.10;99.90;;;;;;5092158;28;19908;-71
2023/08/09 02:58:05;;;;;;;;;;;15.10;99.90;;;;;;5092086;28;19972;-71
2023/08/09 03:00:34;;;;;;;;;;;15.10;99.90;;;;;;5091162;28;19908;-70
2023/08/09 03:03:00;;;;;;;;;;;15.10;99.90;;;;;;5092239;28;20318;-70
2023/08/09 03:05:27;;;;;;;;;;;15.10;99.90;;;;;;5091730;28;19919;-70
2023/08/09 03:07:53;;;;;;;;;;;15.10;99.90;;;;;;5091958;28;19912;-70
2023/08/09 03:10:18;;;;;;;;;;;15.10;99.90;;;;;;5091661;28;20046;-70
2023/08/09 03:12:44;;;;;;;;;;;15.20;99.90;;;;;;5091617;28;20349;-70
2023/08/09 03:15:10;;;;;;;;;;;15.10;99.90;;;;;;5092205;28;20028;-71
2023/08/09 03:17:36;;;;;;;;;;;15.10;99.90;;;;;;5091488;28;19908;-70
2023/08/09 03:20:08;;;;;;;;;;;15.00;99.90;;;;;;5091409;28;19912;-70
2023/08/09 03:22:34;;;;;;;;;;;14.90;99.90;;;;;;5091380;28;19912;-70
2023/08/09 03:24:59;;;;;;;;;;;14.90;99.90;;;;;;5091251;28;19965;-71
2023/08/09 03:27:25;;;;;;;;;;;14.90;99.90;;;;;;5091828;28;19904;-70
2023/08/09 03:29:53;;;;;;;;;;;14.80;99.90;;;;;;5091344;28;19998;-71
2023/08/09 03:32:19;;;;;;;;;;;14.80;99.90;;;;;;5091470;28;19927;-70
2023/08/09 03:34:44;;;;;;;;;;;14.80;99.90;;;;;;5091245;28;19919;-70
2023/08/09 03:37:10;;;;;;;;;;;14.70;99.90;;;;;;5091129;28;19977;-70
2023/08/09 03:39:36;;;;;;;;;;;14.70;99.90;;;;;;5090419;28;20389;-70
2023/08/09 03:42:01;;;;;;;;;;;14.70;99.90;;;;;;5089998;28;19918;-70
2023/08/09 03:44:27;;;;;;;;;;;14.60;99.90;;;;;;5091058;28;19908;-70
2023/08/09 03:46:53;;;;;;;;;;;14.60;99.90;;;;;;5089927;28;19951;-71
2023/08/09 03:49:19;;;;;;;;;;;14.70;99.90;;;;;;5090921;28;20466;-70
2023/08/09 03:51:44;;;;;;;;;;;14.70;99.90;;;;;;5090835;28;20007;-70
2023/08/09 03:54:11;;;;;;;;;;;14.60;99.90;;;;;;5091493;28;19904;-71
2023/08/09 03:56:37;;;;;;;;;;;14.60;99.90;;;;;;5090845;28;20031;-71
2023/08/09 03:59:02;;;;;;;;;;;14.60;99.90;;;;;;5090945;28;19957;-71
2023/08/09 04:01:28;;;;;;;;;;;14.70;99.90;;;;;;5090984;28;19908;-70
2023/08/09 04:03:53;;;;;;;;;;;14.70;99.90;;;;;;5089167;28;19920;-71
2023/08/09 04:06:19;;;;;;;;;;;14.70;99.90;;;;;;5093805;28;19908;-71
2023/08/09 04:08:46;;;;;;;;;;;14.60;99.90;;;;;;5090424;28;19908;-70
2023/08/09 04:11:11;;;;;;;;;;;14.70;99.90;;;;;;5091033;28;19915;-70
2023/08/09 04:13:37;;;;;;;;;;;14.60;99.90;;;;;;5090878;28;19908;-71
2023/08/09 04:16:03;;;;;;;;;;;14.60;99.90;;;;;;5090654;28;19912;-70
2023/08/09 04:18:28;;;;;;;;;;;14.60;99.90;;;;;;5090135;28;19908;-70
2023/08/09 04:20:54;;;;;;;;;;;14.60;99.90;;;;;;5090591;28;19995;-70
2023/08/09 04:23:20;;;;;;;;;;;14.50;99.90;;;;;;5090691;28;20282;-70
2023/08/09 04:25:46;;;;;;;;;;;14.60;99.90;;;;;;5090612;28;19919;-71
2023/08/09 04:28:11;;;;;;;;;;;14.60;99.90;;;;;;5089451;28;19916;-70
2023/08/09 04:30:37;;;;;;;;;;;14.60;99.90;;;;;;5090583;28;19936;-71
2023/08/09 04:33:06;;;;;;;;;;;14.50;99.90;;;;;;5090965;28;20006;-71
2023/08/09 04:35:33;;;;;;;;;;;14.60;99.90;;;;;;5090612;28;20546;-71
2023/08/09 04:37:59;;;;;;;;;;;14.60;99.90;;;;;;5090556;28;19915;-72
2023/08/09 04:40:25;;;;;;;;;;;14.60;99.90;;;;;;5090422;28;20397;-70
2023/08/09 04:42:50;;;;;;;;;;;14.60;99.90;;;;;;5090553;28;19995;-70
2023/08/09 04:45:16;;;;;;;;;;;14.60;99.90;;;;;;5091015;28;20006;-71
2023/08/09 04:47:42;;;;;;;;;;;14.60;99.90;;;;;;5090396;28;19986;-70
2023/08/09 04:50:08;;;;;;;;;;;14.70;99.90;;;;;;5090384;28;19920;-70
2023/08/09 04:52:34;;;;;;;;;;;14.70;99.90;;;;;;5090340;28;19916;-70
2023/08/09 04:55:00;;;;;;;;;;;14.70;99.90;;;;;;5090267;28;19918;-71
2023/08/09 04:57:25;;;;;;;;;;;14.70;99.90;;;;;;5090726;28;20002;-71
2023/08/09 04:59:51;;;;;;;;;;;14.70;99.90;;;;;;5089287;28;19918;-71
2023/08/09 05:02:17;;;;;;;;;;;14.60;99.90;;;;;;5090468;28;20274;-71
2023/08/09 05:04:42;;;;;;;;;;;14.50;99.90;;;;;;5090436;28;20333;-72
2023/08/09 05:07:08;;;;;;;;;;;14.60;99.90;;;;;;5090186;28;20338;-71
2023/08/09 05:09:34;;;;;;;;;;;14.60;99.90;;;;;;5090732;28;19912;-72
2023/08/09 05:11:59;;;;;;;;;;;14.60;99.90;;;;;;5090146;28;20010;-72
2023/08/09 05:14:25;;;;;;;;;;;14.70;99.90;;;;;;5090104;28;19977;-71
2023/08/09 05:16:51;;;;;;;;;;;14.60;99.90;;;;;;5093240;28;20007;-71
2023/08/09 05:19:16;;;;;;;;;;;14.50;99.90;;;;;;5093757;28;19908;-71
2023/08/09 05:21:42;;;;;;;;;;;14.60;99.90;;;;;;5093872;28;19969;-71
2023/08/09 05:24:08;;;;;;;;;;;14.60;99.90;;;;;;5094411;28;19961;-71
2023/08/09 05:26:33;;;;;;;;;;;14.60;99.90;;;;;;5093776;28;19919;-71
2023/08/09 05:28:59;;;;;;;;;;;14.70;99.90;;;;;;5092312;28;20222;-72
2023/08/09 05:31:24;;;;;;;;;;;14.80;99.90;;;;;;5093416;28;20010;-71
2023/08/09 05:33:50;;;;;;;;;;;14.80;99.90;;;;;;5093494;28;19916;-71
2023/08/09 05:36:15;;;;;;;;;;;14.80;99.90;;;;;;5094252;28;19991;-71
2023/08/09 05:38:41;;;;;;;;;;;14.80;99.90;;;;;;5093436;28;19987;-71
2023/08/09 05:41:07;;;;;;;;;;;14.90;99.90;;;;;;5093297;28;19964;-71
2023/08/09 05:43:32;;;;;;;;;;;14.90;99.90;;;;;;5093187;28;20342;-71
2023/08/09 05:45:58;;;;;;;;;;;14.90;99.90;;;;;;5093078;28;19927;-71
2023/08/09 05:48:23;;;;;;;;;;;14.90;99.90;;;;;;5093871;28;20439;-71
2023/08/09 05:50:49;;;;;;;;;;;14.90;99.90;;;;;;5092183;28;19927;-71
2023/08/09 05:53:15;;;;;;;;;;;14.80;99.90;;;;;;5091927;28;19919;-71
2023/08/09 05:55:40;;;;;;;;;;;14.90;99.90;;;;;;5092894;28;19911;-71
2023/08/09 05:58:06;;;;;;;;;;;14.80;99.90;;;;;;5091815;28;19908;-71
2023/08/09 06:00:31;;;;;;;;;;;15.00;99.90;;;;;;5092210;28;20392;-70
2023/08/09 06:02:57;;;;;;;;;;;15.00;99.90;;;;;;5092739;28;19949;-71
2023/08/09 06:05:23;;;;;;;;;;;15.00;99.90;;;;;;5093000;28;19937;-71
2023/08/09 06:07:49;;;;;;;;;;;15.10;99.90;;;;;;5091688;28;19942;-71
2023/08/09 06:10:14;;;;;;;;;;;15.10;99.90;;;;;;5092986;28;19908;-70
2023/08/09 06:12:40;;;;;;;;;;;15.20;99.90;;;;;;5092608;28;20380;-70
2023/08/09 06:15:06;;;;;;;;;;;15.20;99.90;;;;;;5091929;28;19904;-70
2023/08/09 06:17:31;;;;;;;;;;;15.30;99.90;;;;;;5092448;28;20442;-71
2023/08/09 06:19:58;;;;;;;;;;;15.30;99.90;;;;;;5092495;28;19908;-70
2023/08/09 06:22:24;;;;;;;;;;;15.40;99.90;;;;;;5092368;28;19961;-71
2023/08/09 06:24:49;;;;;;;;;;;15.30;99.90;;;;;;5091236;28;19904;-71
2023/08/09 06:27:15;;;;;;;;;;;15.30;99.90;;;;;;5090694;28;20337;-71
2023/08/09 06:29:40;;;;;;;;;;;15.50;99.90;;;;;;5092583;28;19987;-72
2023/08/09 06:32:06;;;;;;;;;;;15.50;99.90;;;;;;5091219;28;20333;-71
2023/08/09 06:34:32;;;;;;;;;;;15.60;99.90;;;;;;5092292;28;19959;-72
2023/08/09 06:36:57;;;;;;;;;;;15.60;99.90;;;;;;5092341;28;19951;-72
2023/08/09 06:39:24;;;;;;;;;;;15.60;99.90;;;;;;5091497;28;19904;-72
2023/08/09 06:41:49;;;;;;;;;;;15.60;99.90;;;;;;5092194;28;19912;-72
2023/08/09 06:44:16;;;;;;;;;;;15.60;99.90;;;;;;5092100;28;19908;-73
2023/08/09 06:46:43;;;;;;;;;;;15.60;99.90;;;;;;5092312;28;19916;-72
2023/08/09 06:49:08;;;;;;;;;;;15.80;99.90;;;;;;5091058;28;19908;-73
2023/08/09 06:51:34;;;;;;;;;;;15.90;99.90;;;;;;5092498;28;19980;-72
2023/08/09 06:53:59;;;;;;;;;;;15.90;99.90;;;;;;5090702;28;19987;-72
2023/08/09 06:56:25;;;;;;;;;;;16.00;99.90;;;;;;5091894;28;20137;-71
2023/08/09 06:58:50;;;;;;;;;;;15.90;99.90;;;;;;5090684;28;19911;-70
2023/08/09 07:01:17;;;;;;;;;;;16.00;99.90;;;;;;5091748;28;19946;-72
2023/08/09 07:03:43;;;;;;;;;;;16.00;99.90;;;;;;5092081;28;19930;-70
2023/08/09 07:06:09;;;;;;;;;;;16.10;99.90;;;;;;5091150;28;19904;-70
2023/08/09 07:08:34;;;;;;;;;;;16.10;99.90;;;;;;5091647;28;19961;-72
2023/08/09 07:11:00;;;;;;;;;;;16.20;99.90;;;;;;5091598;28;19923;-71
2023/08/09 07:13:26;;;;;;;;;;;16.20;99.90;;;;;;5091702;28;20318;-69
2023/08/09 07:15:51;;;;;;;;;;;16.40;99.90;;;;;;5090362;28;19923;-70
2023/08/09 07:18:17;;;;;;;;;;;16.40;99.90;;;;;;5092075;28;19904;-69
2023/08/09 07:20:42;;;;;;;;;;;16.50;99.90;;;;;;5091356;28;20265;-71
2023/08/09 07:23:08;;;;;;;;;;;16.60;99.90;;;;;;5091048;28;19912;-70
2023/08/09 07:25:33;;;;;;;;;;;16.60;99.90;;;;;;5090812;28;20222;-69
2023/08/09 07:27:59;;;;;;;;;;;16.60;99.90;;;;;;5090828;28;20261;-69
2023/08/09 07:30:25;;;;;;;;;;;16.60;99.90;;;;;;5091648;28;19904;-70
2023/08/09 07:32:50;;;;;;;;;;;16.60;99.90;;;;;;5090777;28;19922;-70
2023/08/09 07:35:17;;;;;;;;;;;16.80;99.90;;;;;;5089983;28;19923;-70
2023/08/09 07:37:43;;;;;;;;;;;16.80;99.90;;;;;;5089697;28;19957;-72
2023/08/09 07:40:12;;;;;;;;;;;17.00;99.90;;;;;;5090113;28;19954;-71
2023/08/09 07:42:37;;;;;;;;;;;17.00;99.90;;;;;;5091108;28;19904;-69
2023/08/09 07:45:03;;;;;;;;;;;17.00;99.90;;;;;;5091022;28;19919;-70
2023/08/09 07:47:29;;;;;;;;;;;17.00;99.90;;;;;;5090697;28;19918;-69
2023/08/09 07:49:54;;;;;;;;;;;17.10;99.90;;;;;;5089604;28;19914;-68
2023/08/09 07:52:20;;;;;;;;;;;17.20;99.90;;;;;;5090619;28;19922;-72
2023/08/09 07:54:45;;;;;;;;;;;17.50;99.90;;;;;;5090951;28;20300;-71
2023/08/09 07:57:11;;;;;;;;;;;17.50;99.90;;;;;;5090856;28;20299;-69
2023/08/09 07:59:37;;;;;;;;;;;17.60;99.90;;;;;;5090644;28;20010;-69
2023/08/09 08:02:03;;;;;;;;;;;17.70;99.90;;;;;;5089720;28;20355;-68
2023/08/09 08:04:29;;;;;;;;;;;17.80;99.70;;;;;;5090655;28;19912;-69
2023/08/09 08:06:55;;;;;;;;;;;17.80;99.50;;;;;;5090571;28;20327;-70
2023/08/09 08:09:21;;;;;;;;;;;17.90;99.70;;;;;;5091433;28;19915;-70
2023/08/09 08:11:46;;;;;;;;;;;18.10;98.90;;;;;;5089443;28;19947;-69
2023/08/09 08:14:12;;;;;;;;;;;18.20;98.60;;;;;;5089154;28;19908;-69
2023/08/09 08:16:37;;;;;;;;;;;18.30;98.40;;;;;;5089374;28;19908;-70
2023/08/09 08:19:03;;;;;;;;;;;18.40;98.80;;;;;;5089427;28;20003;-70
2023/08/09 08:21:29;;;;;;;;;;;18.70;98.30;;;;;;5090990;28;20254;-69
2023/08/09 08:23:56;;;;;;;;;;;19.00;97.70;;;;;;5090361;28;19978;-68
2023/08/09 08:26:22;;;;;;;;;;;19.30;97.10;;;;;;5090508;28;19951;-71
2023/08/09 08:28:48;;;;;;;;;;;19.80;96.70;;;;;;5089265;28;19940;-71
2023/08/09 08:31:14;;;;;;;;;;;20.20;95.80;;;;;;5090323;28;20249;-71
2023/08/09 08:33:45;;;;;;;;;;;20.00;95.70;;;;;;5090111;28;19927;-71
2023/08/09 08:36:11;;;;;;;;;;;20.30;95.40;;;;;;5089992;28;19911;-73
2023/08/09 08:38:36;;;;;;;;;;;20.90;94.50;;;;;;5089372;28;20061;-70
2023/08/09 08:41:03;;;;;;;;;;;21.40;93.70;;;;;;5090238;28;19998;-71
2023/08/09 08:43:29;;;;;;;;;;;22.10;93.60;;;;;;5090075;28;19908;-70
2023/08/09 08:45:55;;;;;;;;;;;22.20;92.30;;;;;;5090493;28;19918;-70
2023/08/09 08:48:22;;;;;;;;;;;22.70;91.50;;;;;;5091163;28;20349;-69
2023/08/09 08:50:48;;;;;;;;;;;23.20;91.00;;;;;;5091367;28;19951;-70
2023/08/09 08:53:14;;;;;;;;;;;23.00;90.70;;;;;;5094338;28;19951;-70
2023/08/09 08:55:39;;;;;;;;;;;23.90;90.50;;;;;;5094200;28;20325;-70
2023/08/09 08:58:05;;;;;;;;;;;24.60;90.00;;;;;;5094029;28;19908;-70
2023/08/09 09:00:30;;;;;;;;;;;25.50;85.50;;;;;;5094610;28;20241;-70
2023/08/09 09:02:59;;;;;;;;;;;25.50;82.60;;;;;;5094097;28;19975;-71
2023/08/09 09:05:24;;;;;;;;;;;25.70;80.50;;;;;;5094034;28;19912;-70
2023/08/09 09:07:50;;;;;;;;;;;25.50;82.80;;;;;;5093955;28;20198;-73
2023/08/09 09:10:16;;;;;;;;;;;26.70;79.40;;;;;;5094030;28;19919;-71
2023/08/09 09:12:43;;;;;;;;;;;27.50;78.10;;;;;;5090316;28;19953;-70
2023/08/09 09:15:09;;;;;;;;;;;28.00;78.20;;;;;;5054248;28;19901;-70
2023/08/09 09:17:42;;;;;;;;;;;28.90;75.40;;;;;;5069071;28;19967;-73
2023/08/09 09:20:39;;;;;;;;;;;29.60;74.70;;;;;;5053315;28;19909;-71
2023/08/09 09:23:04;;;;;;;;;;;31.00;68.40;;;;;;5052941;28;19940;-72
2023/08/09 09:25:29;;;;;;;;;;;30.50;65.90;;;;;;5053469;28;19959;-71
2023/08/09 09:27:56;;;;;;;;;;;29.60;68.00;;;;;;5053232;28;19905;-72
2023/08/09 09:30:24;;;;;;;;;;;29.50;64.70;;;;;;5053793;28;20342;-71
2023/08/09 09:32:52;;;;;;;;;;;29.00;65.80;;;;;;5068346;28;19920;-72
2023/08/09 09:35:19;;;;;;;;;;;28.50;66.10;;;;;;5053144;28;19916;-70
2023/08/09 09:37:48;;;;;;;;;;;28.50;66.30;;;;;;5053073;28;19917;-72
2023/08/09 09:40:25;;;;;;;;;;;27.70;66.80;;;;;;5053196;28;19909;-70
2023/08/09 09:42:53;;;;;;;;;;;27.50;68.90;;;;;;5052972;28;20297;-69
2023/08/09 09:45:23;;;;;;;;;;;28.60;65.90;;;;;;5053687;28;19913;-70
2023/08/09 09:47:48;;;;;;;;;;;29.60;64.80;;;;;;5051989;28;19919;-70
2023/08/09 09:50:14;;;;;;;;;;;30.60;63.40;;;;;;5055315;28;19998;-72
2023/08/09 09:52:40;;;;;;;;;;;29.80;62.40;;;;;;5072654;28;19970;-74
2023/08/09 09:55:06;;;;;;;;;;;29.60;60.60;;;;;;5071689;28;19915;-72
2023/08/09 09:57:34;;;;;;;;;;;29.40;61.80;;;;;;5073781;28;19908;-72
2023/08/09 10:00:05;;;;;;;;;;;28.30;61.00;;;;;;5073217;28;19908;-72
2023/08/09 10:02:35;;;;;;;;;;;28.60;62.20;;;;;;5071890;28;20014;-70
2023/08/09 10:05:02;;;;;;;;;;;29.70;60.70;;;;;;5071667;28;20348;-70
2023/08/09 10:07:30;;;;;;;;;;;29.10;60.40;;;;;;5072086;28;19908;-72
2023/08/09 10:09:58;;;;;;;;;;;28.40;60.90;;;;;;5072045;28;20053;-72
2023/08/09 10:12:23;;;;;;;;;;;27.30;64.00;;;;;;5073249;28;19908;-70
2023/08/09 10:14:49;;;;;;;;;;;26.70;63.30;;;;;;5073302;28;20374;-73
2023/08/09 10:17:15;;;;;;;;;;;26.30;63.80;;;;;;5073106;28;20302;-70
2023/08/09 10:19:43;;;;;;;;;;;26.10;64.30;;;;;;5072399;28;20330;-71
2023/08/09 10:22:11;;;;;;;;;;;26.00;63.90;;;;;;5072438;28;19987;-69
2023/08/09 10:24:42;;;;;;;;;;;26.10;64.70;;;;;;5073011;28;19916;-70
2023/08/09 10:27:10;;;;;;;;;;;25.60;63.10;;;;;;5071557;28;19913;-73
2023/08/09 10:29:40;;;;;;;;;;;25.50;64.80;;;;;;5071518;28;20297;-70
2023/08/09 10:32:05;;;;;;;;;;;25.00;65.60;;;;;;5071846;28;20389;-72
2023/08/09 10:34:35;;;;;;;;;;;25.10;66.70;;;;;;5070868;28;19927;-71
2023/08/09 10:37:01;;;;;;;;;;;25.10;66.60;;;;;;5071946;28;19909;-70
2023/08/09 10:39:28;;;;;;;;;;;24.80;66.40;;;;;;5072733;28;19916;-72
2023/08/09 10:42:01;;;;;;;;;;;24.70;66.30;;;;;;5070876;28;19919;-71
2023/08/09 10:44:33;;;;;;;;;;;24.90;66.30;;;;;;5070820;28;19915;-70
2023/08/09 10:47:07;;;;;;;;;;;25.10;65.20;;;;;;5070806;28;20045;-71
2023/08/09 10:49:58;;;;;;;;;;;24.50;64.40;;;;;;5072166;28;19908;-71
2023/08/09 10:52:32;;;;;;;;;;;24.60;64.90;;;;;;5071711;28;19916;-70
2023/08/09 10:55:16;;;;;;;;;;;24.90;65.00;;;;;;5071156;28;20261;-70
2023/08/09 10:57:42;;;;;;;;;;;24.70;64.70;;;;;;5071794;28;20293;-70
2023/08/09 11:00:12;;;;;;;;;;;23.80;66.10;;;;;;5072434;28;20228;-71
2023/08/09 11:02:47;;;;;;;;;;;23.90;66.40;;;;;;5071456;28;20376;-69
2023/08/09 11:05:13;;;;;;;;;;;23.80;67.40;;;;;;5071318;28;19918;-70
2023/08/09 11:07:42;;;;;;;;;;;23.30;67.60;;;;;;5070426;28;19908;-71
2023/08/09 11:10:08;;;;;;;;;;;23.20;68.00;;;;;;5071578;28;19918;-71
2023/08/09 11:12:34;;;;;;;;;;;23.10;68.30;;;;;;5070139;28;20293;-70
2023/08/09 11:14:59;;;;;;;;;;;23.50;68.40;;;;;;5071155;28;20003;-71
2023/08/09 11:17:25;;;;;;;;;;;23.50;67.10;;;;;;5071311;28;19908;-70
2023/08/09 11:19:51;;;;;;;;;;;23.30;66.80;;;;;;5070115;28;20253;-70
2023/08/09 11:22:16;;;;;;;;;;;23.30;66.10;;;;;;5071429;28;19912;-71
2023/08/09 11:24:41;;;;;;;;;;;23.60;66.30;;;;;;5070982;28;20006;-69
2023/08/09 11:27:10;;;;;;;;;;;23.60;65.80;;;;;;5071408;28;19908;-69
2023/08/09 11:29:37;;;;;;;;;;;23.20;66.20;;;;;;5070877;28;19919;-71
2023/08/09 11:32:03;;;;;;;;;;;23.00;67.40;;;;;;5070952;28;19916;-71
2023/08/09 11:34:29;;;;;;;;;;;22.80;67.50;;;;;;5070695;28;19974;-72
2023/08/09 11:36:55;;;;;;;;;;;22.90;68.10;;;;;;5070683;28;19908;-71
2023/08/09 11:39:23;;;;;;;;;;;23.30;67.50;;;;;;5071513;28;19970;-70
2023/08/09 11:41:54;;;;;;;;;;;23.30;67.70;;;;;;5069779;28;19947;-70
2023/08/09 11:44:40;;;;;;;;;;;23.30;67.00;;;;;;5070935;28;20000;-73
2023/08/09 11:47:06;;;;;;;;;;;23.40;67.70;;;;;;5069249;28;19914;-73
2023/08/09 11:49:32;;;;;;;;;;;23.40;67.20;;;;;;5069805;28;19991;-72
2023/08/09 11:51:59;;;;;;;;;;;23.20;66.90;;;;;;5069612;28;19919;-73
2023/08/09 11:54:26;;;;;;;;;;;23.40;67.30;;;;;;5069888;28;19904;-70
2023/08/09 11:56:52;;;;;;;;;;;23.40;65.10;;;;;;5069616;28;19944;-71
2023/08/09 11:59:19;;;;;;;;;;;23.20;64.80;;;;;;5070686;28;19944;-71
2023/08/09 12:01:45;;;;;;;;;;;23.20;65.10;;;;;;5069520;28;19916;-70
2023/08/09 12:04:13;;;;;;;;;;;22.90;66.00;;;;;;5070823;28;20241;-70
2023/08/09 12:06:45;;;;;;;;;;;22.80;66.50;;;;;;5069542;28;19908;-71
2023/08/09 12:09:35;;;;;;;;;;;22.80;64.90;;;;;;5070179;28;20311;-71
2023/08/09 12:12:18;;;;;;;;;;;22.90;64.60;;;;;;5069234;28;19920;-72
2023/08/09 12:14:52;;;;;;;;;;;22.90;64.60;;;;;;5069912;28;20607;-71
2023/08/09 12:17:18;;;;;;;;;;;23.00;64.60;;;;;;5065930;28;19943;-70
2023/08/09 12:19:43;;;;;;;;;;;22.80;64.80;;;;;;5069096;28;20009;-72
2023/08/09 12:22:09;;;;;;;;;;;22.80;66.10;;;;;;5070631;28;19912;-72
2023/08/09 12:24:35;;;;;;;;;;;22.70;65.30;;;;;;5071385;28;20277;-71
2023/08/09 12:27:02;;;;;;;;;;;22.80;65.70;;;;;;5073761;28;19909;-71
2023/08/09 12:29:28;;;;;;;;;;;22.70;64.20;;;;;;5074956;28;19919;-71
2023/08/09 12:31:53;;;;;;;;;;;22.60;64.30;;;;;;5073291;28;19916;-72
2023/08/09 12:34:19;;;;;;;;;;;22.70;64.60;;;;;;5073400;28;19935;-73
2023/08/09 12:36:44;;;;;;;;;;;22.90;65.10;;;;;;5073321;28;19904;-70
2023/08/09 12:39:10;;;;;;;;;;;22.90;65.00;;;;;;5074011;28;19900;-72
2023/08/09 12:41:37;;;;;;;;;;;22.80;65.40;;;;;;5074722;28;19987;-74
2023/08/09 12:44:03;;;;;;;;;;;22.90;65.50;;;;;;5072763;28;19916;-74
2023/08/09 12:46:29;;;;;;;;;;;23.00;68.20;;;;;;5073108;28;19909;-73
2023/08/09 12:48:54;;;;;;;;;;;23.20;66.60;;;;;;5073229;28;19937;-73
2023/08/09 12:51:22;;;;;;;;;;;23.10;64.90;;;;;;5075083;28;19947;-74
2023/08/09 12:53:48;;;;;;;;;;;23.00;65.30;;;;;;5074389;28;20335;-73
2023/08/09 12:56:14;;;;;;;;;;;23.10;65.80;;;;;;5073049;28;20207;-75
2023/08/09 12:58:40;;;;;;;;;;;22.90;64.50;;;;;;5074442;28;19916;-73
2023/08/09 13:01:06;;;;;;;;;;;22.90;63.60;;;;;;5074111;28;19976;-73
2023/08/09 13:03:32;;;;;;;;;;;23.00;63.70;;;;;;5074620;28;19999;-72
2023/08/09 13:05:57;;;;;;;;;;;22.90;63.70;;;;;;5074211;28;20472;-71
2023/08/09 13:08:23;;;;;;;;;;;23.00;63.50;;;;;;5074213;28;19908;-71
2023/08/09 13:10:49;;;;;;;;;;;23.10;63.70;;;;;;5074452;28;19995;-76
2023/08/09 13:13:15;;;;;;;;;;;22.90;63.60;;;;;;5073969;28;19909;-71
2023/08/09 13:15:41;;;;;;;;;;;22.60;63.90;;;;;;5072487;28;20302;-72
2023/08/09 13:18:06;;;;;;;;;;;22.60;64.30;;;;;;5074572;28;19911;-72
2023/08/09 13:20:32;;;;;;;;;;;22.70;64.80;;;;;;5073838;28;19916;-72
2023/08/09 13:22:58;;;;;;;;;;;22.80;64.90;;;;;;5072692;28;20262;-71
2023/08/09 13:25:23;;;;;;;;;;;22.90;65.70;;;;;;5073713;28;19909;-72
2023/08/09 13:27:49;;;;;;;;;;;23.10;65.40;;;;;;5072436;28;19951;-72
2023/08/09 13:30:15;;;;;;;;;;;22.90;64.40;;;;;;5072900;28;19930;-71
2023/08/09 13:32:41;;;;;;;;;;;22.80;64.70;;;;;;5073026;28;19912;-72
2023/08/09 13:35:09;;;;;;;;;;;22.80;65.60;;;;;;5073864;28;19912;-71
2023/08/09 13:37:39;;;;;;;;;;;22.90;64.20;;;;;;5073358;28;19966;-70
2023/08/09 13:40:06;;;;;;;;;;;22.80;64.30;;;;;;5072153;28;20220;-71
2023/08/09 13:42:31;;;;;;;;;;;22.60;64.20;;;;;;5073821;28;20220;-73
2023/08/09 13:44:57;;;;;;;;;;;22.60;64.90;;;;;;5072072;28;20368;-71
2023/08/09 13:47:22;;;;;;;;;;;22.60;64.80;;;;;;5073103;28;19993;-74
2023/08/09 13:49:48;;;;;;;;;;;22.80;65.50;;;;;;5073149;28;19966;-74
2023/08/09 13:52:16;;;;;;;;;;;22.80;65.10;;;;;;5072895;28;19923;-71
2023/08/09 13:54:42;;;;;;;;;;;22.80;64.80;;;;;;5072135;28;19917;-72
2023/08/09 13:57:08;;;;;;;;;;;22.80;65.40;;;;;;5072430;28;19957;-72
2023/08/09 13:59:33;;;;;;;;;;;23.00;64.60;;;;;;5073165;28;19926;-70
2023/08/09 14:01:59;;;;;;;;;;;22.90;63.40;;;;;;5071606;28;20033;-69
2023/08/09 14:04:25;;;;;;;;;;;22.70;63.70;;;;;;5073152;28;19908;-71
2023/08/09 14:06:50;;;;;;;;;;;22.80;64.00;;;;;;5072900;28;19904;-71
2023/08/09 14:09:16;;;;;;;;;;;22.70;64.00;;;;;;5071983;28;19904;-69
2023/08/09 14:11:42;;;;;;;;;;;22.70;63.60;;;;;;5072809;28;19921;-69
2023/08/09 14:14:08;;;;;;;;;;;22.70;63.20;;;;;;5072786;28;19919;-69